Time;durP1;ratioP1;P1;durP2;ratioP2;P2;SDS_P1;SDS_P2;PMS_P1;PMS_P2;Temp;Humidity;BMP_temperature;BMP_pressure;BME280_temperature;BME280_humidity;BME280_pressure;Samples;Min_cycle;Max_cycle;Signal;HPM_P1;HPM_P2
2022/04/07 00:01:14;;;;;;;18.30;5.00;;;9.10;99.90;;;;;;4960564;29;20168;-60
2022/04/07 00:03:40;;;;;;;15.90;5.00;;;9.10;99.90;;;;;;4944586;29;20066;-58
2022/04/07 00:06:09;;;;;;;19.50;5.22;;;9.10;99.90;;;;;;4959791;29;20062;-59
2022/04/07 00:08:42;;;;;;;14.90;4.45;;;9.10;99.90;;;;;;4944933;29;20051;-59
2022/04/07 00:11:08;;;;;;;;;;;9.10;99.90;;;;;;4961465;29;20031;-59
2022/04/07 00:13:33;;;;;;;14.98;4.05;;;9.20;99.90;;;;;;4962202;29;19922;-59
2022/04/07 00:16:00;;;;;;;12.32;3.80;;;9.10;99.90;;;;;;4960845;29;20114;-58
2022/04/07 00:18:27;;;;;;;15.50;3.97;;;9.10;99.90;;;;;;4961391;28;20542;-56
2022/04/07 00:20:53;;;;;;;17.80;4.07;;;9.10;99.90;;;;;;4960518;29;20055;-59
2022/04/07 00:23:20;;;;;;;14.35;3.15;;;9.00;99.90;;;;;;4959115;29;20058;-59
2022/04/07 00:25:46;;;;;;;12.90;3.15;;;9.10;99.90;;;;;;4961553;28;20053;-58
2022/04/07 00:28:12;;;;;;;12.95;2.70;;;9.00;99.90;;;;;;4959552;29;20050;-58
2022/04/07 00:30:39;;;;;;;11.05;2.83;;;9.00;99.90;;;;;;4960620;29;20186;-58
2022/04/07 00:33:07;;;;;;;13.88;2.65;;;9.10;99.90;;;;;;4943506;29;20059;-59
2022/04/07 00:35:33;;;;;;;13.48;2.80;;;9.10;99.90;;;;;;4944277;29;20039;-58
2022/04/07 00:37:59;;;;;;;16.25;2.58;;;9.00;99.90;;;;;;4959868;29;20507;-58
2022/04/07 00:40:26;;;;;;;11.27;2.78;;;9.10;99.90;;;;;;4960835;28;20361;-59
2022/04/07 00:42:52;;;;;;;14.35;2.88;;;8.90;99.90;;;;;;4961758;28;20039;-58
2022/04/07 00:45:23;;;;;;;15.63;3.15;;;9.00;99.90;;;;;;4958736;29;20059;-58
2022/04/07 00:47:51;;;;;;;20.13;3.25;;;9.00;99.90;;;;;;4959855;28;20637;-58
2022/04/07 00:50:19;;;;;;;18.27;3.25;;;9.00;99.90;;;;;;4960769;28;20078;-59
2022/04/07 00:52:49;;;;;;;12.45;2.63;;;9.10;99.90;;;;;;4959779;29;20046;-59
2022/04/07 00:55:15;;;;;;;17.63;3.30;;;9.00;99.90;;;;;;4961209;28;20568;-59
2022/04/07 00:57:42;;;;;;;10.80;2.60;;;9.00;99.90;;;;;;4958822;29;20103;-59
2022/04/07 01:00:10;;;;;;;14.43;3.17;;;9.10;99.90;;;;;;4960009;28;20102;-58
2022/04/07 01:02:36;;;;;;;18.85;3.30;;;9.10;99.90;;;;;;4959899;28;20074;-58
2022/04/07 01:05:07;;;;;;;14.02;2.70;;;9.10;99.90;;;;;;4961253;28;20055;-57
2022/04/07 01:07:37;;;;;;;17.20;4.20;;;9.00;99.90;;;;;;4960707;28;20051;-58
2022/04/07 01:10:05;;;;;;;17.27;3.53;;;9.10;99.90;;;;;;4960423;28;20289;-58
2022/04/07 01:12:31;;;;;;;20.08;5.20;;;9.00;99.90;;;;;;4960662;28;20047;-57
2022/04/07 01:15:01;;;;;;;18.38;4.10;;;9.10;99.90;;;;;;4942508;29;20039;-58
2022/04/07 01:17:29;;;;;;;21.40;3.83;;;9.00;99.90;;;;;;4961246;28;20137;-58
2022/04/07 01:19:55;;;;;;;19.45;3.60;;;8.90;99.90;;;;;;4960168;28;20050;-58
2022/04/07 01:22:22;;;;;;;23.77;4.72;;;8.80;99.90;;;;;;4961119;28;20099;-58
2022/04/07 01:24:48;;;;;;;19.50;3.95;;;8.90;99.90;;;;;;4958950;29;20058;-59
2022/04/07 01:27:16;;;;;;;20.58;4.20;;;8.70;99.90;;;;;;4959111;29;20058;-59
2022/04/07 01:29:42;;;;;;;24.42;5.10;;;8.90;99.90;;;;;;4961002;29;20043;-58
2022/04/07 01:32:12;;;;;;;16.38;3.55;;;8.90;99.90;;;;;;4959685;29;20059;-59
2022/04/07 01:34:39;;;;;;;19.20;3.45;;;8.80;99.90;;;;;;4959712;29;20050;-58
2022/04/07 01:37:07;;;;;;;24.42;4.90;;;8.80;99.90;;;;;;4958793;28;20050;-57
2022/04/07 01:39:34;;;;;;;15.90;3.55;;;8.70;99.90;;;;;;4963363;28;20074;-59
2022/04/07 01:41:59;;;;;;;18.05;4.60;;;8.80;99.90;;;;;;4963937;29;20047;-58
2022/04/07 01:44:26;;;;;;;22.13;4.85;;;8.80;99.90;;;;;;4963924;29;20055;-58
2022/04/07 01:46:52;;;;;;;22.70;4.93;;;8.80;99.90;;;;;;4964427;28;20058;-58
2022/04/07 01:49:20;;;;;;;18.58;3.75;;;8.70;99.90;;;;;;4963638;29;20047;-58
2022/04/07 01:51:47;;;;;;;24.85;5.30;;;8.80;99.90;;;;;;4962661;29;20051;-54
2022/04/07 01:54:15;;;;;;;23.70;5.03;;;8.80;99.90;;;;;;4962844;29;20121;-50
2022/04/07 01:56:42;;;;;;;16.38;4.00;;;8.90;99.90;;;;;;4963971;29;20058;-53
2022/04/07 01:59:08;;;;;;;18.55;4.35;;;8.90;99.90;;;;;;4963527;28;20055;-51
2022/04/07 02:01:35;;;;;;;22.83;4.47;;;8.90;99.90;;;;;;4963243;29;20043;-52
2022/04/07 02:04:00;;;;;;;17.63;4.38;;;8.80;99.90;;;;;;4963946;28;20042;-53
2022/04/07 02:06:27;;;;;;;23.92;4.72;;;8.80;99.90;;;;;;4962508;29;20051;-54
2022/04/07 02:08:54;;;;;;;20.85;4.28;;;8.80;99.90;;;;;;4964019;28;20048;-54
2022/04/07 02:11:20;;;;;;;20.52;3.95;;;8.80;99.90;;;;;;4962825;28;20381;-53
2022/04/07 02:13:46;;;;;;;23.35;4.18;;;8.80;99.90;;;;;;4963888;28;20066;-50
2022/04/07 02:16:12;;;;;;;16.75;3.35;;;8.90;99.90;;;;;;4962644;28;20043;-51
2022/04/07 02:18:38;;;;;;;23.15;3.90;;;8.90;99.90;;;;;;4962992;28;20058;-50
2022/04/07 02:21:04;;;;;;;20.83;4.20;;;8.80;99.90;;;;;;4963419;28;20047;-53
2022/04/07 02:23:34;;;;;;;22.42;4.43;;;8.90;99.90;;;;;;4962568;28;20078;-52
2022/04/07 02:25:59;;;;;;;24.23;3.72;;;8.90;99.90;;;;;;4963803;28;20517;-53
2022/04/07 02:28:25;;;;;;;25.63;4.65;;;8.90;99.90;;;;;;4962243;28;20114;-53
2022/04/07 02:30:51;;;;;;;21.73;4.90;;;8.90;99.90;;;;;;4963610;28;20506;-52
2022/04/07 02:33:16;;;;;;;21.98;4.75;;;8.80;99.90;;;;;;4962747;29;20051;-51
2022/04/07 02:35:42;;;;;;;18.65;3.97;;;8.90;99.90;;;;;;4962747;28;20059;-54
2022/04/07 02:38:08;;;;;;;29.83;5.25;;;8.80;99.90;;;;;;4963372;28;20035;-54
2022/04/07 02:40:33;;;;;;;21.58;3.95;;;8.80;99.90;;;;;;4962110;29;20530;-53
2022/04/07 02:42:59;;;;;;;24.80;5.07;;;8.80;99.90;;;;;;4963408;28;20070;-53
2022/04/07 02:45:25;;;;;;;27.80;4.43;;;8.90;99.90;;;;;;4961874;28;20146;-53
2022/04/07 02:47:50;;;;;;;24.70;4.28;;;8.80;99.90;;;;;;4945604;29;20541;-56
2022/04/07 02:50:16;;;;;;;25.08;4.82;;;8.80;99.90;;;;;;4961530;28;20118;-53
2022/04/07 02:52:43;;;;;;;17.70;3.45;;;8.80;99.90;;;;;;4962696;28;20047;-53
2022/04/07 02:55:09;;;;;;;19.33;5.03;;;8.80;99.90;;;;;;4962828;28;20043;-52
2022/04/07 02:57:35;;;;;;;19.33;4.38;;;8.80;99.90;;;;;;4962093;29;20071;-50
2022/04/07 03:00:04;;;;;;;23.90;3.88;;;8.90;99.90;;;;;;4963139;28;20051;-52
2022/04/07 03:02:29;;;;;;;26.77;4.32;;;8.80;99.90;;;;;;4960428;29;20098;-50
2022/04/07 03:04:55;;;;;;;21.50;3.80;;;8.90;99.90;;;;;;4962742;29;20086;-50
2022/04/07 03:07:21;;;;;;;20.58;3.78;;;8.80;99.90;;;;;;4961968;28;20036;-50
2022/04/07 03:09:46;;;;;;;19.05;4.10;;;8.80;99.90;;;;;;4962223;29;20047;-50
2022/04/07 03:12:15;;;;;;;14.80;3.65;;;8.80;99.90;;;;;;4962373;29;20111;-51
2022/04/07 03:14:41;;;;;;;20.75;4.22;;;8.80;99.90;;;;;;4961782;28;20047;-49
2022/04/07 03:17:07;;;;;;;18.08;5.00;;;8.90;99.90;;;;;;4962341;28;20082;-51
2022/04/07 03:19:34;;;;;;;22.45;4.47;;;8.80;99.90;;;;;;4961381;29;20239;-49
2022/04/07 03:22:00;;;;;;;23.15;4.10;;;8.90;99.90;;;;;;4962911;28;20141;-50
2022/04/07 03:24:25;;;;;;;19.73;4.28;;;8.90;99.90;;;;;;4961647;28;20135;-50
2022/04/07 03:26:52;;;;;;;25.00;3.95;;;8.90;99.90;;;;;;4962263;29;20050;-51
2022/04/07 03:29:20;;;;;;;19.50;3.75;;;8.90;99.90;;;;;;4962388;28;20513;-50
2022/04/07 03:31:46;;;;;;;15.95;3.67;;;8.90;99.90;;;;;;4961270;28;20061;-50
2022/04/07 03:34:12;;;;;;;20.65;4.65;;;9.00;99.90;;;;;;4962552;29;20047;-50
2022/04/07 03:36:37;;;;;;;19.60;4.70;;;9.00;99.90;;;;;;4961127;29;20096;-51
2022/04/07 03:39:03;;;;;;;22.55;4.43;;;9.00;99.90;;;;;;4962660;28;20047;-50
2022/04/07 03:41:29;;;;;;;22.10;4.88;;;8.90;99.90;;;;;;4961271;29;20408;-50
2022/04/07 03:43:58;;;;;;;22.38;4.82;;;9.00;99.90;;;;;;4960662;29;20057;-53
2022/04/07 03:46:24;;;;;;;22.08;4.18;;;9.10;99.90;;;;;;4961264;28;20066;-49
2022/04/07 03:48:50;;;;;;;23.02;4.70;;;9.00;99.90;;;;;;4961318;28;20470;-52
2022/04/07 03:51:18;;;;;;;16.92;4.63;;;9.10;99.90;;;;;;4962223;29;20082;-50
2022/04/07 03:53:44;;;;;;;21.10;4.43;;;9.10;99.90;;;;;;4961025;29;20075;-50
2022/04/07 03:56:10;;;;;;;15.40;3.50;;;9.10;99.90;;;;;;4962294;28;20043;-50
2022/04/07 03:58:37;;;;;;;30.42;7.25;;;9.10;99.90;;;;;;4959477;29;20062;-52
2022/04/07 04:01:03;;;;;;;21.30;4.50;;;9.00;99.90;;;;;;4960529;28;20078;-54
2022/04/07 04:03:29;;;;;;;24.80;5.25;;;9.00;99.90;;;;;;4961315;28;20043;-54
2022/04/07 04:05:54;;;;;;;23.63;4.75;;;9.00;99.90;;;;;;4961050;29;20093;-53
2022/04/07 04:08:20;;;;;;;22.20;4.95;;;8.90;99.90;;;;;;4961778;29;20043;-53
2022/04/07 04:10:46;;;;;;;25.58;5.25;;;8.90;99.90;;;;;;4960671;28;20079;-54
2022/04/07 04:13:11;;;;;;;19.45;4.00;;;8.80;99.90;;;;;;4961937;28;20051;-52
2022/04/07 04:15:37;;;;;;;23.15;4.93;;;8.60;99.90;;;;;;4960343;29;20043;-51
2022/04/07 04:18:03;;;;;;;26.48;5.00;;;8.70;99.90;;;;;;4961515;29;20536;-53
2022/04/07 04:20:29;;;;;;;28.83;4.88;;;8.70;99.90;;;;;;4960944;29;20058;-53
2022/04/07 04:23:01;;;;;;;30.88;5.82;;;8.70;99.90;;;;;;5089161;27;20451;-53
2022/04/07 04:25:27;;;;;;;21.17;5.50;;;8.60;99.90;;;;;;5089277;28;20435;-50
2022/04/07 04:27:52;;;;;;;27.75;5.18;;;8.60;99.90;;;;;;5089160;28;20071;-49
2022/04/07 04:30:18;;;;;;;26.80;4.95;;;8.60;99.90;;;;;;5089067;28;20495;-51
2022/04/07 04:32:44;;;;;;;28.70;5.75;;;8.60;99.90;;;;;;5089216;28;20038;-51
2022/04/07 04:35:10;;;;;;;24.45;4.43;;;8.60;99.90;;;;;;5089175;28;20032;-53
2022/04/07 04:37:37;;;;;;;30.33;4.85;;;8.50;99.90;;;;;;5087792;28;20391;-51
2022/04/07 04:40:03;;;;;;;30.50;5.95;;;8.50;99.90;;;;;;5089075;28;20036;-49
2022/04/07 04:42:29;;;;;;;27.13;5.18;;;8.50;99.90;;;;;;5088633;28;20139;-52
2022/04/07 04:44:55;;;;;;;29.30;5.15;;;8.50;99.90;;;;;;5088804;28;20119;-51
2022/04/07 04:47:21;;;;;;;27.08;5.22;;;8.50;99.90;;;;;;5088979;28;20093;-52
2022/04/07 04:49:47;;;;;;;38.15;6.22;;;8.60;99.90;;;;;;5088839;28;20044;-51
2022/04/07 04:52:13;;;;;;;35.67;6.80;;;8.50;99.90;;;;;;5088613;28;20174;-52
2022/04/07 04:54:40;;;;;;;33.42;5.88;;;8.40;99.90;;;;;;5087532;28;20044;-50
2022/04/07 04:57:06;;;;;;;30.10;5.43;;;8.40;99.90;;;;;;5088539;28;20400;-51
2022/04/07 04:59:32;;;;;;;26.73;5.20;;;8.50;99.90;;;;;;5088740;28;20237;-52
2022/04/07 05:01:58;;;;;;;33.80;5.65;;;8.40;99.90;;;;;;5088241;28;20560;-52
2022/04/07 05:04:24;;;;;;;28.92;5.45;;;8.40;99.90;;;;;;5095969;28;20154;-54
2022/04/07 05:06:49;;;;;;;29.50;5.50;;;8.50;99.90;;;;;;5108847;28;20065;-50
2022/04/07 05:09:15;;;;;;;34.35;6.55;;;8.50;99.90;;;;;;5108780;28;20039;-50
2022/04/07 05:11:41;;;;;;;32.17;6.03;;;8.50;99.90;;;;;;5108597;28;20529;-51
2022/04/07 05:14:07;;;;;;;36.00;5.97;;;8.50;99.90;;;;;;5108630;28;20042;-53
2022/04/07 05:16:32;;;;;;;29.45;5.18;;;8.50;99.90;;;;;;5107104;28;20044;-52
2022/04/07 05:18:58;;;;;;;25.50;5.38;;;8.30;99.90;;;;;;5088357;28;20040;-50
2022/04/07 05:21:23;;;;;;;27.17;4.90;;;8.30;99.90;;;;;;5087864;28;20083;-53
2022/04/07 05:23:49;;;;;;;21.67;4.53;;;8.30;99.90;;;;;;5079376;28;20071;-54
2022/04/07 05:26:15;;;;;;;19.52;3.67;;;8.10;99.90;;;;;;5067643;28;20047;-52
2022/04/07 05:28:42;;;;;;;14.60;2.83;;;7.70;99.90;;;;;;5068190;28;20037;-51
2022/04/07 05:31:08;;;;;;;15.40;3.47;;;7.50;99.90;;;;;;5067708;28;20041;-54
2022/04/07 05:33:34;;;;;;;12.40;2.97;;;7.30;99.90;;;;;;5059085;28;20386;-53
2022/04/07 05:36:00;;;;;;;14.15;2.63;;;7.30;99.90;;;;;;5054521;28;20041;-53
2022/04/07 05:38:26;;;;;;;17.58;3.38;;;7.10;99.90;;;;;;5054378;28;20067;-54
2022/04/07 05:40:52;;;;;;;12.40;3.35;;;7.00;99.90;;;;;;5054168;28;20052;-51
2022/04/07 05:43:18;;;;;;;10.20;2.08;;;7.10;99.90;;;;;;5053170;28;20033;-51
2022/04/07 05:45:45;;;;;;;12.63;2.25;;;6.80;99.90;;;;;;5052798;28;20051;-50
2022/04/07 05:48:12;;;;;;;9.63;1.85;;;6.80;99.90;;;;;;5052782;28;20045;-51
2022/04/07 05:50:41;;;;;;;7.72;1.45;;;6.70;99.90;;;;;;5052559;28;20052;-50
2022/04/07 05:53:07;;;;;;;10.20;2.22;;;6.50;99.90;;;;;;5067988;28;20052;-50
2022/04/07 05:55:33;;;;;;;8.05;1.58;;;6.60;99.90;;;;;;5052472;28;20100;-50
2022/04/07 05:58:07;;;;;;;7.50;1.50;;;6.40;99.90;;;;;;5052441;28;20502;-49
2022/04/07 06:00:33;;;;;;;8.68;1.95;;;6.30;99.90;;;;;;5052533;28;20061;-49
2022/04/07 06:02:59;;;;;;;9.00;1.73;;;6.20;99.90;;;;;;5052460;28;20063;-50
2022/04/07 06:05:25;;;;;;;5.15;1.50;;;6.10;99.90;;;;;;5069257;28;20043;-56
2022/04/07 06:07:57;;;;;;;7.78;1.58;;;6.10;99.90;;;;;;5072264;28;20047;-56
2022/04/07 06:10:23;;;;;;;10.30;1.95;;;6.10;99.90;;;;;;5072616;28;20040;-52
2022/04/07 06:12:49;;;;;;;11.55;1.77;;;6.10;99.90;;;;;;5072286;28;20044;-53
2022/04/07 06:15:15;;;;;;;7.13;1.52;;;6.00;99.90;;;;;;5072025;28;20056;-50
2022/04/07 06:17:44;;;;;;;8.93;1.70;;;6.00;99.90;;;;;;5072025;28;20037;-50
2022/04/07 06:20:11;;;;;;;6.78;1.60;;;6.10;99.90;;;;;;5072157;28;20132;-50
2022/04/07 06:22:37;;;;;;;8.55;1.30;;;5.90;99.90;;;;;;5071609;28;20084;-49
2022/04/07 06:25:04;;;;;;;10.10;2.35;;;6.00;99.90;;;;;;5052884;28;20044;-50
2022/04/07 06:27:34;;;;;;;7.07;1.30;;;6.00;99.90;;;;;;5051961;28;20041;-50
2022/04/07 06:29:59;;;;;;;9.65;1.55;;;5.90;99.90;;;;;;5051928;28;20135;-53
2022/04/07 06:32:25;;;;;;;9.43;1.65;;;5.90;99.90;;;;;;5052046;28;20112;-52
2022/04/07 06:34:51;;;;;;;9.25;1.38;;;6.00;99.90;;;;;;5051840;28;20086;-52
2022/04/07 06:37:16;;;;;;;8.15;1.45;;;5.90;99.90;;;;;;5050643;28;20037;-53
2022/04/07 06:39:42;;;;;;;7.13;1.45;;;5.80;99.90;;;;;;5050728;28;20036;-53
2022/04/07 06:42:08;;;;;;;9.93;1.60;;;6.00;99.90;;;;;;5052128;28;20055;-51
2022/04/07 06:44:33;;;;;;;7.43;1.58;;;5.90;99.90;;;;;;5050900;28;20044;-51
2022/04/07 06:46:59;;;;;;;4.63;1.52;;;5.80;99.90;;;;;;5051575;28;20045;-52
2022/04/07 06:49:25;;;;;;;9.60;1.55;;;5.90;99.90;;;;;;5051458;28;20041;-54
2022/04/07 06:51:50;;;;;;;6.20;1.10;;;6.00;99.90;;;;;;5051587;28;20128;-54
2022/04/07 06:54:16;;;;;;;7.72;1.67;;;5.90;99.90;;;;;;5050163;28;20050;-52
2022/04/07 06:56:41;;;;;;;6.13;1.20;;;6.00;99.90;;;;;;5051576;28;20045;-50
2022/04/07 06:59:07;;;;;;;11.93;1.63;;;5.90;99.90;;;;;;5051451;28;20048;-51
2022/04/07 07:01:34;;;;;;;5.85;1.23;;;5.90;99.90;;;;;;5051492;28;20048;-50
2022/04/07 07:03:59;;;;;;;8.55;1.40;;;6.00;99.90;;;;;;5056483;28;20106;-53
2022/04/07 07:06:25;;;;;;;8.32;1.40;;;5.90;99.90;;;;;;5071254;28;20484;-50
2022/04/07 07:08:51;;;;;;;7.03;1.40;;;5.90;99.90;;;;;;5071496;28;20107;-54
2022/04/07 07:11:16;;;;;;;6.80;1.10;;;6.00;99.90;;;;;;5071489;28;20036;-50
2022/04/07 07:13:42;;;;;;;7.80;1.25;;;6.00;99.90;;;;;;5069800;28;20400;-53
2022/04/07 07:16:08;;;;;;;8.00;1.67;;;6.10;99.90;;;;;;5071070;28;20040;-52
2022/04/07 07:18:33;;;;;;;5.97;1.25;;;6.00;99.90;;;;;;5070951;28;20414;-52
2022/04/07 07:20:59;;;;;;;7.35;1.20;;;6.10;99.90;;;;;;5069324;28;20048;-53
2022/04/07 07:23:25;;;;;;;7.50;1.30;;;6.20;99.90;;;;;;5065515;28;20432;-51
2022/04/07 07:25:50;;;;;;;10.15;1.67;;;6.20;99.90;;;;;;5050762;28;20179;-51
2022/04/07 07:28:16;;;;;;;8.65;1.80;;;6.30;99.90;;;;;;5050914;28;20044;-53
2022/04/07 07:30:42;;;;;;;8.88;1.30;;;6.30;99.90;;;;;;5050824;28;20041;-51
2022/04/07 07:33:08;;;;;;;6.57;1.10;;;6.30;99.90;;;;;;5050821;28;20463;-51
2022/04/07 07:35:34;;;;;;;7.78;1.30;;;6.20;99.90;;;;;;5050721;28;20132;-54
2022/04/07 07:38:01;;;;;;;7.85;1.60;;;6.30;99.90;;;;;;5050781;28;20112;-51
2022/04/07 07:40:29;;;;;;;8.20;1.48;;;6.40;99.90;;;;;;5050756;28;20037;-51
2022/04/07 07:43:00;;;;;;;7.05;1.70;;;6.30;99.90;;;;;;5065871;28;20061;-50
2022/04/07 07:45:31;;;;;;;6.57;1.15;;;6.20;99.90;;;;;;5050585;28;20033;-51
2022/04/07 07:47:57;;;;;;;7.57;1.40;;;6.30;99.90;;;;;;5050431;28;20110;-54
2022/04/07 07:50:23;;;;;;;8.63;1.48;;;6.40;99.90;;;;;;5050665;28;20044;-53
2022/04/07 07:52:49;;;;;;;9.55;1.30;;;6.60;99.90;;;;;;5050516;28;20423;-54
2022/04/07 07:55:14;;;;;;;6.53;1.40;;;6.60;99.90;;;;;;5050657;28;20028;-53
2022/04/07 07:57:40;;;;;;;10.02;1.80;;;6.80;99.90;;;;;;5050401;28;20049;-54
2022/04/07 08:00:08;;;;;;;10.50;2.30;;;6.80;99.90;;;;;;5051277;28;20033;-52
2022/04/07 08:02:38;;;;;;;8.55;1.60;;;6.90;99.90;;;;;;5051187;28;20045;-52
2022/04/07 08:05:10;;;;;;;10.68;1.63;;;7.10;99.90;;;;;;5066740;28;20063;-52
2022/04/07 08:07:40;;;;;;;9.82;1.80;;;7.30;99.90;;;;;;5071817;28;20056;-51
2022/04/07 08:10:06;;;;;;;9.43;1.42;;;7.30;99.90;;;;;;5071864;28;20128;-51
2022/04/07 08:12:32;;;;;;;10.60;2.25;;;7.40;99.90;;;;;;5071638;28;20032;-51
2022/04/07 08:14:58;;;;;;;9.35;2.83;;;7.40;99.90;;;;;;5071518;28;20358;-52
2022/04/07 08:17:23;;;;;;;9.05;1.75;;;7.60;99.90;;;;;;5071641;28;20048;-51
2022/04/07 08:19:49;;;;;;;9.02;1.45;;;7.70;99.90;;;;;;5071763;28;20460;-51
2022/04/07 08:22:16;;;;;;;7.43;1.30;;;7.70;99.90;;;;;;5071336;28;20408;-50
2022/04/07 08:24:41;;;;;;;7.95;1.60;;;7.90;99.90;;;;;;5055564;28;20052;-51
2022/04/07 08:27:07;;;;;;;7.82;1.60;;;7.90;99.90;;;;;;5051571;28;20041;-54
2022/04/07 08:29:34;;;;;;;7.40;1.90;;;8.10;99.90;;;;;;5051411;28;20033;-52
2022/04/07 08:32:00;;;;;;;7.05;1.60;;;8.20;99.90;;;;;;5050481;28;20115;-54
2022/04/07 08:34:26;;;;;;;7.43;1.50;;;8.20;99.90;;;;;;5051693;28;20375;-54
2022/04/07 08:36:52;;;;;;;8.32;1.30;;;8.20;99.90;;;;;;5067143;28;20123;-52
2022/04/07 08:39:19;;;;;;;5.28;1.08;;;8.20;99.90;;;;;;5051579;28;20365;-54
2022/04/07 08:41:47;;;;;;;8.65;1.83;;;8.30;99.90;;;;;;5051300;28;20098;-54
2022/04/07 08:44:17;;;;;;;7.78;1.52;;;8.40;99.90;;;;;;5051316;28;20497;-51
2022/04/07 08:46:53;;;;;;;8.35;1.52;;;8.50;99.90;;;;;;5051471;28;20034;-51
2022/04/07 08:49:23;;;;;;;9.50;1.80;;;8.40;99.90;;;;;;5051238;28;20138;-53
2022/04/07 08:51:53;;;;;;;11.82;1.80;;;8.60;99.90;;;;;;5051190;28;20048;-51
2022/04/07 08:54:19;;;;;;;8.57;2.10;;;8.70;99.90;;;;;;5066676;28;20397;-54
2022/04/07 08:56:46;;;;;;;11.73;2.00;;;8.80;99.90;;;;;;5051175;28;20048;-51
2022/04/07 08:59:12;;;;;;;10.57;1.77;;;9.00;99.90;;;;;;5051177;28;20512;-50
2022/04/07 09:01:38;;;;;;;9.82;2.20;;;9.00;99.90;;;;;;5050957;28;20134;-53
2022/04/07 09:04:04;;;;;;;9.88;1.58;;;9.20;99.90;;;;;;5056823;28;20045;-53
2022/04/07 09:06:37;;;;;;;12.13;1.60;;;9.40;99.90;;;;;;5071253;28;20041;-54
2022/04/07 09:09:17;;;;;;;8.48;1.58;;;9.30;99.90;;;;;;5073511;28;20357;-50
2022/04/07 09:11:43;;;;;;;9.93;2.50;;;9.30;99.90;;;;;;5074954;28;20045;-54
2022/04/07 09:14:10;;;;;;;7.70;1.48;;;9.50;99.90;;;;;;5073493;28;20052;-53
2022/04/07 09:16:40;;;;;;;11.13;2.13;;;9.50;99.90;;;;;;5074841;28;20044;-53
2022/04/07 09:19:08;;;;;;;11.70;1.67;;;9.70;99.90;;;;;;5073392;28;20044;-53
2022/04/07 09:21:37;;;;;;;12.60;2.55;;;9.60;99.90;;;;;;5074358;28;20095;-53
2022/04/07 09:24:08;;;;;;;13.63;1.92;;;9.70;99.90;;;;;;5063934;28;20052;-50
2022/04/07 09:26:41;;;;;;;11.02;2.25;;;9.60;99.90;;;;;;5054792;28;20056;-51
2022/04/07 09:29:11;;;;;;;7.72;1.52;;;9.60;99.90;;;;;;5069935;28;20505;-52
2022/04/07 09:31:50;;;;;;;12.82;2.10;;;9.50;99.90;;;;;;5069736;28;20045;-55
2022/04/07 09:34:15;;;;;;;10.05;2.10;;;9.40;99.90;;;;;;5054491;28;20044;-51
2022/04/07 09:36:41;;;;;;;13.95;2.17;;;9.40;99.90;;;;;;5054539;28;20044;-51
2022/04/07 09:39:06;;;;;;;11.30;1.92;;;9.30;99.90;;;;;;5054503;28;20087;-51
2022/04/07 09:41:32;;;;;;;13.73;2.65;;;9.40;99.90;;;;;;5054317;28;20400;-54
2022/04/07 09:44:01;;;;;;;14.80;2.40;;;9.50;99.90;;;;;;5054201;28;20033;-54
2022/04/07 09:46:38;;;;;;;10.75;2.22;;;9.50;99.90;;;;;;5054228;28;20033;-52
2022/04/07 09:49:05;;;;;;;12.13;1.85;;;9.50;99.90;;;;;;5054067;28;20040;-54
2022/04/07 09:51:50;;;;;;;11.25;2.08;;;9.60;99.90;;;;;;5054355;28;20091;-54
2022/04/07 09:54:18;;;;;;;16.40;3.45;;;9.50;99.90;;;;;;5054324;28;20393;-53
2022/04/07 09:56:47;;;;;;;11.25;2.13;;;9.40;99.90;;;;;;5052752;28;20497;-52
2022/04/07 09:59:19;;;;;;;11.45;1.98;;;9.40;99.90;;;;;;5053972;28;20040;-54
2022/04/07 10:01:47;;;;;;;12.25;2.58;;;9.10;99.90;;;;;;5053974;28;20052;-53
2022/04/07 10:04:14;;;;;;;12.25;2.40;;;8.90;99.90;;;;;;5060794;28;20043;-51
2022/04/07 10:06:40;;;;;;;9.07;2.08;;;9.10;99.90;;;;;;5072573;28;20047;-53
2022/04/07 10:09:08;;;;;;;11.90;1.98;;;9.20;99.90;;;;;;5073776;28;20086;-54
2022/04/07 10:11:34;;;;;;;12.30;2.55;;;9.40;99.90;;;;;;5073687;28;20389;-53
2022/04/07 10:14:01;;;;;;;13.18;2.45;;;9.60;99.90;;;;;;5073545;28;20106;-53
2022/04/07 10:16:27;;;;;;;13.95;2.42;;;9.60;99.90;;;;;;5073810;28;20471;-53
2022/04/07 10:19:04;;;;;;;12.98;2.15;;;9.50;99.90;;;;;;5073842;28;20608;-52
2022/04/07 10:21:57;;;;;;;10.05;1.65;;;9.40;99.90;;;;;;5073423;28;20049;-49
2022/04/07 10:24:31;;;;;;;10.38;1.85;;;8.80;99.90;;;;;;5058723;28;20037;-52
2022/04/07 10:27:01;;;;;;;13.18;1.92;;;8.50;99.90;;;;;;5053687;28;20076;-53
2022/04/07 10:29:28;;;;;;;14.48;2.50;;;8.30;99.90;;;;;;5053585;28;20129;-53
2022/04/07 10:32:12;;;;;;;12.73;2.40;;;7.90;99.90;;;;;;5053644;28;20102;-53
2022/04/07 10:34:42;;;;;;;10.95;2.25;;;7.50;99.90;;;;;;5053453;28;20051;-50
2022/04/07 10:37:09;;;;;;;11.75;1.85;;;7.50;99.90;;;;;;5068972;28;20068;-49
2022/04/07 10:39:40;;;;;;;9.52;2.38;;;7.60;99.90;;;;;;5068949;28;20187;-50
2022/04/07 10:42:09;;;;;;;20.57;4.17;;;7.80;99.90;;;;;;5053223;28;20048;-50
2022/04/07 10:44:36;;;;;;;14.93;2.88;;;8.00;99.90;;;;;;5053254;28;20353;-51
2022/04/07 10:47:07;;;;;;;13.05;2.33;;;8.00;99.90;;;;;;5052943;28;20083;-54
2022/04/07 10:49:34;;;;;;;15.48;2.50;;;8.20;99.90;;;;;;5053127;28;20040;-53
2022/04/07 10:52:06;;;;;;;13.63;3.05;;;8.50;99.90;;;;;;5068236;28;20435;-51
2022/04/07 10:54:33;;;;;;;12.20;2.30;;;8.60;99.90;;;;;;5052876;28;20091;-52
2022/04/07 10:57:01;;;;;;;12.70;2.42;;;8.90;99.90;;;;;;5053087;28;20493;-51
2022/04/07 10:59:37;;;;;;;15.48;3.03;;;9.00;99.90;;;;;;5053068;28;20127;-53
2022/04/07 11:02:04;;;;;;;20.02;4.30;;;8.90;99.90;;;;;;5052801;28;20047;-51
2022/04/07 11:04:31;;;;;;;14.23;2.67;;;8.70;99.90;;;;;;5062127;28;20461;-51
2022/04/07 11:07:07;;;;;;;14.60;3.38;;;8.70;99.90;;;;;;5072779;28;20044;-51
2022/04/07 11:09:53;;;;;;;18.23;2.88;;;8.60;99.90;;;;;;5072951;28;20392;-53
2022/04/07 11:12:32;;;;;;;12.60;2.40;;;8.70;99.90;;;;;;5072666;28;20048;-53
2022/04/07 11:15:03;;;;;;;16.17;3.00;;;9.00;99.90;;;;;;5072616;28;20461;-51
2022/04/07 11:17:55;;;;;;;13.43;3.05;;;9.20;99.90;;;;;;5072553;28;20135;-53
2022/04/07 11:20:27;;;;;;;13.67;2.40;;;9.40;99.90;;;;;;5072146;28;20125;-51
2022/04/07 11:23:08;;;;;;;17.05;2.83;;;9.60;99.90;;;;;;5070578;28;20372;-51
2022/04/07 11:25:40;;;;;;;17.50;2.85;;;9.70;99.90;;;;;;5052617;28;20081;-57
2022/04/07 11:28:22;;;;;;;11.63;3.03;;;9.50;99.90;;;;;;5051269;28;20080;-51
2022/04/07 11:31:06;;;;;;;15.90;2.87;;;9.60;99.90;;;;;;5067611;28;20049;-53
2022/04/07 11:33:38;;;;;;;14.50;2.53;;;9.30;99.90;;;;;;5052566;28;20037;-53
2022/04/07 11:36:04;;;;;;;11.48;2.30;;;9.40;99.90;;;;;;5052406;28;20072;-54
2022/04/07 11:38:38;;;;;;;15.00;2.88;;;9.50;99.90;;;;;;5051097;28;20068;-53
2022/04/07 11:41:04;;;;;;;15.93;3.65;;;9.40;99.90;;;;;;5052270;28;20040;-54
2022/04/07 11:43:32;;;;;;;14.23;2.90;;;9.50;99.90;;;;;;5052078;28;20088;-52
2022/04/07 11:45:58;;;;;;;13.73;2.65;;;9.60;99.90;;;;;;5051065;28;20037;-55
2022/04/07 11:48:30;;;;;;;10.15;2.30;;;9.70;99.90;;;;;;5052141;28;20087;-53
2022/04/07 11:51:00;;;;;;;8.85;2.38;;;9.80;99.90;;;;;;5052179;28;20039;-52
2022/04/07 11:53:30;;;;;;;11.48;2.50;;;9.90;99.90;;;;;;5052084;28;20562;-52
2022/04/07 11:56:10;;;;;;;12.52;2.45;;;9.90;99.90;;;;;;5050735;28;20044;-53
2022/04/07 11:58:36;;;;;;;11.57;2.95;;;9.90;99.90;;;;;;5052334;28;20037;-51
2022/04/07 12:01:11;;;;;;;16.23;3.03;;;9.70;99.90;;;;;;5052096;28;20332;-54
2022/04/07 12:03:40;;;;;;;12.38;3.17;;;9.60;99.90;;;;;;5054135;28;20119;-53
2022/04/07 12:06:06;;;;;;;14.10;3.13;;;9.60;99.90;;;;;;5071720;28;20170;-55
2022/04/07 12:08:33;;;;;;;11.27;2.45;;;9.60;99.90;;;;;;5071760;28;20117;-54
2022/04/07 12:10:59;;;;;;;13.77;2.60;;;9.70;99.90;;;;;;5071984;28;20453;-53
2022/04/07 12:13:25;;;;;;;11.45;2.70;;;9.70;99.90;;;;;;5071877;28;20036;-54
2022/04/07 12:15:51;;;;;;;16.42;2.88;;;9.70;99.90;;;;;;5071607;28;20563;-55
2022/04/07 12:18:27;;;;;;;10.55;1.98;;;9.70;99.90;;;;;;5071638;28;20043;-53
2022/04/07 12:21:05;;;;;;;17.00;3.17;;;9.50;99.90;;;;;;5071465;28;20056;-52
2022/04/07 12:23:31;;;;;;;13.98;2.55;;;8.10;99.90;;;;;;5065118;28;20159;-49
2022/04/07 12:25:59;;;;;;;12.13;2.15;;;7.70;99.90;;;;;;5050155;28;20481;-49
2022/04/07 12:28:33;;;;;;;13.02;2.35;;;7.40;99.90;;;;;;5051432;28;20473;-50
2022/04/07 12:30:59;;;;;;;7.97;1.60;;;7.40;99.90;;;;;;5051491;28;20048;-51
2022/04/07 12:33:46;;;;;;;6.32;1.30;;;7.20;99.90;;;;;;5067249;28;20483;-50
2022/04/07 12:36:35;;;;;;;8.00;1.65;;;7.20;99.90;;;;;;5051510;28;20039;-52
2022/04/07 12:39:09;;;;;;;14.57;2.25;;;7.30;99.90;;;;;;5051906;28;20167;-52
2022/04/07 12:41:37;;;;;;;13.70;2.42;;;7.70;99.90;;;;;;5051327;28;20049;-53
2022/04/07 12:44:03;;;;;;;17.20;2.38;;;8.20;99.90;;;;;;5054083;28;20397;-51
2022/04/07 12:46:58;;;;;;;13.73;3.05;;;8.60;99.90;;;;;;5055402;28;20044;-53
2022/04/07 12:49:37;;;;;;;13.55;2.58;;;8.80;99.90;;;;;;5055535;28;20041;-53
2022/04/07 12:52:11;;;;;;;10.93;2.00;;;9.00;99.90;;;;;;5055265;28;20053;-52
2022/04/07 12:54:38;;;;;;;13.40;2.40;;;8.90;99.90;;;;;;5055491;28;20056;-53